createdAt,value
2019-04-26T00:00:16.499Z,3.80
2019-04-26T00:03:03.710Z,2.90
2019-04-26T00:05:48.894Z,3.63
2019-04-26T00:08:34.895Z,4.17
2019-04-26T00:11:34.560Z,2.53
2019-04-26T00:14:39.254Z,2.50
2019-04-26T00:17:31.737Z,2.57
2019-04-26T00:20:17.183Z,3.23
2019-04-26T00:23:02.217Z,2.93
2019-04-26T00:25:47.434Z,5.40
2019-04-26T00:28:33.130Z,3.40
2019-04-26T00:31:19.244Z,3.60
2019-04-26T00:34:04.698Z,2.37
2019-04-26T00:36:49.882Z,3.80
2019-04-26T00:39:35.358Z,3.80
2019-04-26T00:42:21.150Z,2.67
2019-04-26T00:45:07.219Z,2.67
2019-04-26T00:47:53.299Z,4.83
2019-04-26T00:50:38.668Z,4.63
2019-04-26T00:53:27.245Z,5.63
2019-04-26T00:56:14.545Z,2.77
2019-04-26T00:59:00.003Z,3.17
2019-04-26T01:01:47.240Z,3.17
2019-04-26T01:04:32.258Z,5.10
2019-04-26T01:07:17.363Z,3.80
2019-04-26T01:10:03.122Z,3.87
2019-04-26T01:12:48.285Z,4.03
2019-04-26T01:15:33.732Z,3.90
2019-04-26T01:18:18.355Z,3.80
2019-04-26T01:21:05.565Z,4.13
2019-04-26T01:23:54.215Z,3.13
2019-04-26T01:26:39.842Z,4.87
2019-04-26T01:29:25.971Z,3.73
2019-04-26T01:32:11.982Z,3.47
2019-04-26T01:34:57.305Z,4.20
2019-04-26T01:37:45.191Z,3.40
2019-04-26T01:40:32.427Z,4.23
2019-04-26T01:43:32.799Z,4.23
2019-04-26T01:46:38.235Z,5.47
2019-04-26T01:49:24.133Z,3.90
2019-04-26T01:52:09.895Z,4.73
2019-04-26T01:54:55.217Z,6.07
2019-04-26T01:57:40.989Z,6.33
2019-04-26T02:00:33.975Z,4.10
2019-04-26T02:03:23.952Z,5.03
2019-04-26T02:06:09.078Z,5.03
2019-04-26T02:08:54.658Z,6.80
2019-04-26T02:11:40.634Z,4.97
2019-04-26T02:14:26.906Z,5.07
2019-04-26T02:17:12.417Z,5.33
2019-04-26T02:19:57.568Z,6.03
2019-04-26T02:23:00.333Z,6.30
2019-04-26T02:25:46.087Z,6.03
2019-04-26T02:28:32.388Z,6.07
2019-04-26T02:31:18.453Z,7.20
2019-04-26T02:34:04.174Z,6.33
2019-04-26T02:36:57.658Z,6.97
2019-04-26T02:39:40.003Z,6.13
2019-04-26T02:42:32.949Z,6.33
2019-04-26T02:45:30.957Z,5.73
2019-04-26T02:48:29.114Z,6.93
2019-04-26T02:51:21.714Z,5.70
2019-04-26T02:54:10.597Z,6.10
2019-04-26T02:56:58.717Z,5.47
2019-04-26T02:59:46.192Z,4.33
2019-04-26T03:02:33.305Z,4.53
2019-04-26T03:05:19.103Z,4.37
2019-04-26T03:08:08.043Z,5.50
2019-04-26T03:10:56.794Z,3.97
2019-04-26T03:13:47.462Z,4.10
2019-04-26T03:16:39.436Z,4.00
2019-04-26T03:19:39.697Z,4.13
2019-04-26T03:22:28.885Z,3.90
2019-04-26T03:25:20.563Z,4.37
2019-04-26T03:28:21.657Z,4.73
2019-04-26T03:31:27.245Z,4.43
2019-04-26T03:34:21.279Z,4.00
2019-04-26T03:37:34.475Z,3.57
2019-04-26T03:40:44.612Z,3.70
2019-04-26T03:43:45.893Z,4.60
2019-04-26T03:46:35.653Z,5.03
2019-04-26T03:49:38.039Z,3.77
2019-04-26T03:52:44.074Z,3.70
2019-04-26T03:55:45.450Z,4.27
2019-04-26T03:58:57.086Z,4.57
2019-04-26T04:01:57.114Z,3.67
2019-04-26T04:04:59.549Z,4.73
2019-04-26T04:07:51.386Z,4.67
2019-04-26T04:10:43.570Z,3.70
2019-04-26T04:13:38.998Z,4.47
2019-04-26T04:16:48.980Z,6.03
2019-04-26T04:19:54.819Z,4.77
2019-04-26T04:23:18.610Z,7.20
2019-04-26T04:26:05.739Z,5.83
2019-04-26T04:29:17.618Z,4.57
2019-04-26T04:32:18.123Z,4.93
2019-04-26T04:35:10.089Z,5.80
2019-04-26T04:38:09.796Z,5.00
2019-04-26T04:41:18.225Z,5.30
2019-04-26T04:44:20.787Z,7.03
2019-04-26T04:47:23.503Z,5.17
2019-04-26T04:50:28.617Z,5.47
2019-04-26T04:53:17.044Z,5.57
2019-04-26T04:56:14.288Z,5.20
2019-04-26T04:59:12.335Z,5.73
2019-04-26T05:02:09.389Z,4.97
2019-04-26T05:05:16.900Z,4.67
2019-04-26T05:08:08.759Z,4.77
2019-04-26T05:10:57.529Z,4.60
2019-04-26T05:14:01.958Z,4.73
2019-04-26T05:17:15.273Z,4.70
2019-04-26T05:20:30.738Z,5.20
2019-04-26T05:23:42.234Z,6.33
2019-04-26T05:26:57.317Z,5.67
2019-04-26T05:29:57.032Z,4.70
2019-04-26T05:33:02.656Z,4.73
2019-04-26T05:36:02.229Z,5.13
2019-04-26T05:39:02.458Z,6.10
2019-04-26T05:42:16.085Z,8.73
2019-04-26T05:45:15.393Z,5.90
2019-04-26T05:48:21.337Z,5.43
2019-04-26T05:51:32.013Z,6.43
2019-04-26T05:54:47.514Z,6.40
2019-04-26T05:57:52.694Z,7.53
2019-04-26T06:00:52.092Z,5.53
2019-04-26T06:03:49.679Z,6.33
2019-04-26T06:06:57.207Z,6.47
2019-04-26T06:09:47.981Z,6.60
2019-04-26T06:13:12.712Z,6.43
2019-04-26T06:16:21.559Z,7.47
2019-04-26T06:19:23.631Z,7.17
2019-04-26T06:22:30.149Z,7.40
2019-04-26T06:25:26.829Z,7.67
2019-04-26T06:28:36.296Z,10.87
2019-04-26T06:32:00.479Z,9.97
2019-04-26T06:34:55.084Z,8.60
2019-04-26T06:38:04.582Z,8.10
2019-04-26T06:41:17.960Z,8.23
2019-04-26T06:44:11.453Z,7.80
2019-04-26T06:47:02.306Z,10.03
2019-04-26T06:50:02.068Z,9.80
2019-04-26T06:52:50.759Z,8.90
2019-04-26T06:55:41.149Z,14.53
2019-04-26T06:58:53.951Z,10.27
2019-04-26T07:01:56.343Z,10.07
2019-04-26T07:04:51.689Z,9.33
2019-04-26T07:07:52.658Z,9.77
2019-04-26T07:10:48.525Z,9.63
2019-04-26T07:14:04.767Z,9.87
2019-04-26T07:17:08.648Z,9.63
2019-04-26T07:20:20.662Z,8.87
2019-04-26T07:23:41.479Z,8.13
2019-04-26T07:27:05.543Z,7.33
2019-04-26T07:30:09.894Z,7.47
2019-04-26T07:33:14.521Z,9.17
2019-04-26T07:36:15.240Z,7.63
2019-04-26T07:39:20.003Z,7.73
2019-04-26T07:42:33.583Z,8.27
2019-04-26T07:45:49.889Z,8.93
2019-04-26T07:48:47.357Z,9.17
2019-04-26T07:51:53.995Z,8.93
2019-04-26T07:55:09.183Z,10.87
2019-04-26T07:58:32.176Z,13.83
2019-04-26T08:01:49.470Z,12.03
2019-04-26T08:04:37.888Z,12.60
2019-04-26T08:07:26.722Z,13.07
2019-04-26T08:10:15.192Z,14.30
2019-04-26T08:13:10.153Z,15.40
2019-04-26T08:16:21.664Z,16.17
2019-04-26T08:19:16.158Z,16.63
2019-04-26T08:22:14.790Z,18.13
2019-04-26T08:24:54.173Z,19.00
2019-04-26T08:27:41.432Z,18.03
2019-04-26T08:30:30.288Z,18.03
2019-04-26T08:33:23.547Z,18.90
2019-04-26T08:36:11.331Z,19.03
2019-04-26T08:39:00.501Z,20.70
2019-04-26T08:41:47.351Z,21.33
2019-04-26T08:44:42.616Z,22.33
2019-04-26T08:47:30.422Z,20.90
2019-04-26T08:50:20.677Z,21.40
2019-04-26T08:53:07.236Z,21.40
2019-04-26T08:55:54.047Z,23.13
2019-04-26T08:58:42.557Z,23.70
2019-04-26T09:01:35.848Z,22.00
2019-04-26T09:04:28.333Z,22.77
2019-04-26T09:07:19.162Z,22.47
2019-04-26T09:10:11.129Z,21.53
2019-04-26T09:12:58.046Z,21.27
2019-04-26T09:15:47.042Z,21.37
2019-04-26T09:18:42.358Z,19.20
2019-04-26T09:21:21.283Z,18.77
2019-04-26T09:24:08.583Z,20.07
2019-04-26T09:27:13.302Z,18.90
2019-04-26T09:30:04.343Z,19.87
2019-04-26T09:33:04.084Z,18.43
2019-04-26T09:35:49.502Z,17.80
2019-04-26T09:38:34.376Z,17.13
2019-04-26T09:41:19.606Z,18.47
2019-04-26T09:44:09.496Z,18.93
2019-04-26T09:46:59.929Z,19.60
2019-04-26T09:49:49.967Z,18.83
2019-04-26T09:52:36.714Z,18.93
2019-04-26T09:55:34.530Z,19.93
2019-04-26T09:58:09.001Z,18.87
2019-04-26T10:00:54.508Z,18.27
2019-04-26T10:03:39.835Z,20.50
2019-04-26T10:06:26.078Z,18.83
2019-04-26T10:09:17.281Z,19.73
2019-04-26T10:12:03.806Z,19.87
2019-04-26T10:14:53.250Z,20.00
2019-04-26T10:17:38.556Z,20.83
2019-04-26T10:20:24.087Z,19.80
2019-04-26T10:23:08.923Z,18.70
2019-04-26T10:25:54.197Z,19.80
2019-04-26T10:28:41.072Z,18.83
2019-04-26T10:31:27.260Z,18.30
2019-04-26T10:34:13.060Z,18.07
2019-04-26T10:37:01.512Z,18.53
2019-04-26T10:39:45.243Z,17.13
2019-04-26T10:42:31.161Z,17.23
2019-04-26T10:45:16.778Z,17.73
2019-04-26T10:48:01.707Z,18.07
2019-04-26T10:50:47.118Z,18.13
2019-04-26T10:53:51.259Z,20.87
2019-04-26T10:56:40.637Z,17.50
2019-04-26T10:59:27.862Z,21.30
2019-04-26T11:02:16.078Z,18.20
2019-04-26T11:05:01.158Z,18.80
2019-04-26T11:07:46.435Z,19.80
2019-04-26T11:10:33.420Z,19.17
2019-04-26T11:13:18.690Z,20.17
2019-04-26T11:16:07.272Z,21.43
2019-04-26T11:18:52.417Z,21.57
2019-04-26T11:21:37.344Z,22.90
2019-04-26T11:24:22.480Z,22.37
2019-04-26T11:27:09.559Z,22.47
2019-04-26T11:29:54.770Z,22.97
2019-04-26T11:32:39.884Z,25.43
2019-04-26T11:35:24.739Z,25.10
2019-04-26T11:38:09.731Z,25.60
2019-04-26T11:41:06.013Z,25.90
2019-04-26T11:43:41.468Z,26.20
2019-04-26T11:46:29.231Z,26.80
2019-04-26T11:49:13.383Z,27.20
2019-04-26T11:52:02.515Z,26.03
2019-04-26T11:54:45.282Z,28.03
2019-04-26T11:57:30.542Z,30.00
2019-04-26T12:00:17.687Z,28.50
2019-04-26T12:03:03.137Z,27.73
2019-04-26T12:05:50.382Z,27.53
2019-04-26T12:08:48.804Z,25.10
2019-04-26T12:11:35.273Z,28.27
2019-04-26T12:14:20.822Z,25.73
2019-04-26T12:17:05.834Z,25.60
2019-04-26T12:19:52.336Z,23.97
2019-04-26T12:22:39.508Z,23.53
2019-04-26T12:25:24.425Z,23.13
2019-04-26T12:28:09.794Z,23.07
2019-04-26T12:30:58.428Z,21.83
2019-04-26T12:33:43.635Z,21.20
2019-04-26T12:36:30.557Z,20.70
2019-04-26T12:39:16.621Z,21.43
2019-04-26T12:42:03.052Z,22.67
2019-04-26T12:45:01.427Z,22.63
2019-04-26T12:47:54.495Z,23.17
2019-04-26T12:50:39.337Z,22.50
2019-04-26T12:53:26.858Z,22.17
2019-04-26T12:56:11.527Z,22.13
2019-04-26T12:58:56.812Z,23.07
2019-04-26T13:01:42.596Z,21.07
2019-04-26T13:04:36.094Z,20.53
2019-04-26T13:07:23.705Z,22.20
2019-04-26T13:10:26.437Z,21.10
2019-04-26T13:13:19.200Z,22.57
2019-04-26T13:16:11.498Z,21.03
2019-04-26T13:18:56.201Z,22.93
2019-04-26T13:21:41.064Z,21.33
2019-04-26T13:24:27.272Z,21.03
2019-04-26T13:27:12.447Z,19.57
2019-04-26T13:30:02.538Z,20.70
2019-04-26T13:32:44.652Z,19.63
2019-04-26T13:35:29.564Z,19.77
2019-04-26T13:38:16.437Z,19.97
2019-04-26T13:41:04.768Z,19.77
2019-04-26T13:43:48.787Z,20.57
2019-04-26T13:46:52.321Z,20.50
2019-04-26T13:49:39.096Z,19.60
2019-04-26T13:52:24.698Z,19.70
2019-04-26T13:55:10.596Z,21.27
2019-04-26T13:57:56.060Z,20.73
2019-04-26T14:00:43.602Z,21.63
2019-04-26T14:03:31.617Z,21.17
2019-04-26T14:06:16.111Z,21.43
2019-04-26T14:09:03.047Z,20.10
2019-04-26T14:11:48.122Z,21.07
2019-04-26T14:14:34.154Z,20.63
2019-04-26T14:17:20.134Z,19.50
2019-04-26T14:20:05.327Z,19.90
2019-04-26T14:23:07.327Z,19.50
2019-04-26T14:26:05.281Z,20.03
2019-04-26T14:28:50.432Z,20.37
2019-04-26T14:31:35.230Z,20.77
2019-04-26T14:34:19.919Z,19.23
2019-04-26T14:37:06.823Z,20.07
2019-04-26T14:39:55.393Z,20.50
2019-04-26T14:42:45.987Z,21.97
2019-04-26T14:45:27.154Z,20.07
2019-04-26T14:48:20.534Z,20.80
2019-04-26T14:51:07.966Z,20.93
2019-04-26T14:53:47.448Z,18.80
2019-04-26T14:56:32.891Z,18.90
2019-04-26T14:59:20.241Z,18.17
2019-04-26T15:02:10.433Z,17.93
2019-04-26T15:04:58.144Z,17.80
2019-04-26T15:07:51.006Z,17.33
2019-04-26T15:10:44.377Z,18.93
2019-04-26T15:13:23.593Z,19.03
2019-04-26T15:16:10.536Z,17.93
2019-04-26T15:18:56.103Z,17.20
2019-04-26T15:21:42.211Z,18.10
2019-04-26T15:24:30.137Z,18.90
2019-04-26T15:27:14.088Z,20.17
2019-04-26T15:30:01.663Z,18.83
2019-04-26T15:32:47.217Z,18.57
2019-04-26T15:35:35.793Z,17.90
2019-04-26T15:38:20.615Z,18.53
2019-04-26T15:41:24.075Z,17.27
2019-04-26T15:44:11.997Z,18.07
2019-04-26T15:47:06.089Z,19.33
2019-04-26T15:50:10.026Z,18.50
2019-04-26T15:52:55.371Z,17.73
2019-04-26T15:55:41.934Z,18.07
2019-04-26T15:58:27.366Z,18.23
2019-04-26T16:01:13.838Z,19.23
2019-04-26T16:03:59.458Z,19.47
2019-04-26T16:06:45.119Z,19.50
2019-04-26T16:09:32.259Z,18.23
2019-04-26T16:12:20.285Z,18.53
2019-04-26T16:15:06.503Z,18.90
2019-04-26T16:17:52.175Z,18.73
2019-04-26T16:20:39.385Z,18.60
2019-04-26T16:23:24.513Z,18.93
2019-04-26T16:26:12.768Z,18.50
2019-04-26T16:29:05.522Z,20.13
2019-04-26T16:32:02.776Z,18.23
2019-04-26T16:34:50.341Z,18.27
2019-04-26T16:37:35.357Z,18.17
2019-04-26T16:40:21.107Z,17.53
2019-04-26T16:43:07.345Z,17.57
2019-04-26T16:45:54.265Z,18.60
2019-04-26T16:48:39.267Z,18.87
2019-04-26T16:51:24.227Z,18.10
2019-04-26T16:54:11.135Z,19.77
2019-04-26T16:56:58.841Z,20.67
2019-04-26T16:59:51.016Z,19.50
2019-04-26T17:02:34.731Z,21.83
2019-04-26T17:05:23.995Z,20.20
2019-04-26T17:08:10.172Z,21.07
2019-04-26T17:10:56.378Z,21.00
2019-04-26T17:13:48.386Z,21.83
2019-04-26T17:16:25.828Z,21.93
2019-04-26T17:19:13.749Z,22.47
2019-04-26T17:22:06.761Z,21.93
2019-04-26T17:24:53.533Z,22.10
2019-04-26T17:27:40.301Z,22.03
2019-04-26T17:30:27.019Z,22.07
2019-04-26T17:33:13.094Z,22.40
2019-04-26T17:35:58.757Z,22.60
2019-04-26T17:38:44.277Z,22.67
2019-04-26T17:41:29.285Z,22.67
2019-04-26T17:44:14.736Z,23.03
2019-04-26T17:47:02.050Z,23.70
2019-04-26T17:49:47.076Z,23.10
2019-04-26T17:52:36.140Z,22.00
2019-04-26T17:55:19.042Z,21.43
2019-04-26T17:58:11.773Z,22.80
2019-04-26T18:00:52.291Z,23.60
2019-04-26T18:03:37.851Z,24.97
2019-04-26T18:06:29.491Z,26.27
2019-04-26T18:09:18.562Z,23.87
2019-04-26T18:12:00.060Z,24.93
2019-04-26T18:14:43.958Z,24.87
2019-04-26T18:17:40.153Z,24.40
2019-04-26T18:20:42.931Z,24.00
2019-04-26T18:23:30.521Z,23.90
2019-04-26T18:26:17.386Z,23.47
2019-04-26T18:29:03.842Z,25.47
2019-04-26T18:31:49.349Z,28.23
2019-04-26T18:34:40.073Z,28.53
2019-04-26T18:37:23.134Z,28.73
2019-04-26T18:40:08.691Z,25.57
2019-04-26T18:42:55.087Z,25.10
2019-04-26T18:45:40.827Z,25.57
2019-04-26T18:48:26.059Z,27.97
2019-04-26T18:51:12.215Z,25.97
2019-04-26T18:54:17.803Z,28.87
2019-04-26T18:57:03.373Z,25.40
2019-04-26T18:59:51.315Z,25.83
2019-04-26T19:02:36.076Z,26.10
2019-04-26T19:05:26.999Z,26.50
2019-04-26T19:08:09.978Z,26.77
2019-04-26T19:11:01.171Z,26.20
2019-04-26T19:13:51.536Z,25.97
2019-04-26T19:16:50.214Z,27.60
2019-04-26T19:19:36.964Z,26.63
2019-04-26T19:22:22.633Z,25.77
2019-04-26T19:25:19.098Z,26.17
2019-04-26T19:27:58.908Z,26.73
2019-04-26T19:30:49.021Z,26.27
2019-04-26T19:33:31.370Z,25.80
2019-04-26T19:36:17.760Z,26.83
2019-04-26T19:39:05.618Z,25.47
2019-04-26T19:41:53.587Z,26.60
2019-04-26T19:44:38.119Z,26.60
2019-04-26T19:47:27.827Z,26.33
2019-04-26T19:50:14.706Z,27.03
2019-04-26T19:53:10.400Z,26.10
2019-04-26T19:55:57.277Z,26.47
2019-04-26T19:58:46.000Z,25.80
2019-04-26T20:01:31.614Z,26.07
2019-04-26T20:04:16.614Z,26.60
2019-04-26T20:07:02.186Z,26.47
2019-04-26T20:09:47.221Z,26.47
2019-04-26T20:12:35.443Z,24.97
2019-04-26T20:15:25.806Z,24.60
2019-04-26T20:18:06.773Z,25.47
2019-04-26T20:20:52.163Z,26.07
2019-04-26T20:23:43.693Z,25.47
2019-04-26T20:26:26.359Z,26.97
2019-04-26T20:29:11.827Z,27.37
2019-04-26T20:32:02.166Z,26.10
2019-04-26T20:35:01.016Z,27.90
2019-04-26T20:37:46.011Z,28.37
2019-04-26T20:40:30.768Z,25.00
2019-04-26T20:43:24.341Z,25.80
2019-04-26T20:46:14.453Z,25.90
2019-04-26T20:48:52.010Z,25.53
2019-04-26T20:51:42.198Z,28.43
2019-04-26T20:54:24.516Z,27.10
2019-04-26T20:57:09.649Z,26.90
2019-04-26T21:00:01.513Z,25.90
2019-04-26T21:02:41.810Z,26.90
2019-04-26T21:05:28.191Z,26.93
2019-04-26T21:08:13.161Z,26.47
2019-04-26T21:11:00.278Z,28.43
2019-04-26T21:13:45.432Z,26.93
2019-04-26T21:16:32.282Z,27.83
2019-04-26T21:19:18.920Z,26.80
2019-04-26T21:22:05.992Z,26.77
2019-04-26T21:25:02.510Z,26.70
2019-04-26T21:28:06.726Z,25.77
2019-04-26T21:30:57.155Z,28.00
2019-04-26T21:33:58.767Z,26.33
2019-04-26T21:36:59.121Z,26.67
2019-04-26T21:39:47.587Z,24.77
2019-04-26T21:42:33.405Z,25.93
2019-04-26T21:45:21.637Z,26.10
2019-04-26T21:48:06.822Z,26.13
2019-04-26T21:50:53.783Z,26.37
2019-04-26T21:53:42.164Z,27.27
2019-04-26T21:56:27.179Z,25.57
2019-04-26T21:59:13.781Z,24.87
2019-04-26T22:01:59.470Z,27.30
2019-04-26T22:04:46.216Z,26.40
2019-04-26T22:07:32.821Z,26.53
2019-04-26T22:10:19.971Z,26.87
2019-04-26T22:13:08.708Z,26.23
2019-04-26T22:15:58.115Z,24.67
2019-04-26T22:18:50.551Z,27.73
2019-04-26T22:21:44.892Z,24.97
2019-04-26T22:24:33.692Z,26.20
2019-04-26T22:27:21.786Z,28.07
2019-04-26T22:30:13.317Z,26.63
2019-04-26T22:32:58.515Z,27.57
2019-04-26T22:35:44.515Z,28.03
2019-04-26T22:38:29.724Z,26.43
2019-04-26T22:41:14.483Z,25.17
2019-04-26T22:44:09.950Z,26.90
2019-04-26T22:47:14.101Z,26.03
2019-04-26T22:49:59.575Z,26.57
2019-04-26T22:52:51.349Z,26.57
2019-04-26T22:55:33.358Z,28.30
2019-04-26T22:58:20.465Z,25.63
2019-04-26T23:01:06.226Z,25.37
2019-04-26T23:03:53.237Z,27.07
2019-04-26T23:06:42.430Z,27.43
2019-04-26T23:09:25.938Z,24.53
2019-04-26T23:12:16.384Z,24.77
2019-04-26T23:15:04.685Z,24.37
2019-04-26T23:17:57.100Z,24.40
2019-04-26T23:20:46.460Z,24.77
2019-04-26T23:23:33.018Z,23.27
2019-04-26T23:26:18.439Z,25.17
2019-04-26T23:29:03.858Z,23.53
2019-04-26T23:31:49.290Z,22.53
2019-04-26T23:34:35.499Z,22.70
2019-04-26T23:37:26.020Z,23.17
2019-04-26T23:40:07.679Z,23.43
2019-04-26T23:42:54.487Z,24.10
2019-04-26T23:45:41.961Z,25.17
2019-04-26T23:48:26.258Z,26.73
2019-04-26T23:51:10.931Z,24.17
2019-04-26T23:53:57.734Z,25.43
2019-04-26T23:56:43.766Z,25.57
2019-04-26T23:59:28.765Z,25.37
